createdAt,value
2023-03-17T00:05:30.075Z,68.33
2023-03-17T00:13:52.992Z,68.56
2023-03-17T00:22:18.540Z,68.40
2023-03-17T00:30:41.539Z,68.58
2023-03-17T00:47:36.017Z,68.47
2023-03-17T00:55:59.379Z,68.36
2023-03-17T01:04:24.075Z,68.43
2023-03-17T01:12:47.274Z,68.41
2023-03-17T01:21:10.345Z,68.45
2023-03-17T01:29:34.994Z,68.20
2023-03-17T01:37:59.438Z,68.47
2023-03-17T01:46:29.378Z,68.38
2023-03-17T01:55:02.676Z,68.32
2023-03-17T02:03:26.660Z,68.34
2023-03-17T02:11:51.119Z,68.47
2023-03-17T02:20:17.291Z,68.29
2023-03-17T02:28:40.547Z,68.37
2023-03-17T02:37:03.814Z,68.53
2023-03-17T02:45:27.834Z,68.62
2023-03-17T02:53:51.154Z,68.41
2023-03-17T03:02:14.495Z,68.29
2023-03-17T03:10:37.777Z,68.34
2023-03-17T03:19:00.795Z,68.42
2023-03-17T03:27:24.152Z,68.65
2023-03-17T03:35:47.476Z,68.56
2023-03-17T03:44:11.380Z,68.72
2023-03-17T03:52:35.682Z,68.51
2023-03-17T04:00:58.621Z,68.70
2023-03-17T04:09:21.518Z,68.61
2023-03-17T04:17:45.618Z,68.45
2023-03-17T04:26:11.789Z,68.47
2023-03-17T04:34:34.770Z,68.68
2023-03-17T04:42:57.688Z,68.42
2023-03-17T04:51:20.701Z,68.46
2023-03-17T04:59:43.654Z,68.76
2023-03-17T05:08:06.589Z,68.59
2023-03-17T05:16:29.628Z,68.51
2023-03-17T05:24:52.533Z,68.58
2023-03-17T05:33:16.644Z,68.61
2023-03-17T05:41:39.629Z,68.74
2023-03-17T05:50:05.961Z,68.69
2023-03-17T05:58:29.117Z,68.91
2023-03-17T06:06:52.038Z,69.13
2023-03-17T06:15:17.125Z,69.48
2023-03-17T06:23:40.240Z,70.36
2023-03-17T06:32:19.178Z,71.02
2023-03-17T06:40:43.591Z,71.66
2023-03-17T06:49:08.070Z,72.12
2023-03-17T06:57:31.935Z,72.03
2023-03-17T07:05:54.840Z,72.09
2023-03-17T07:14:18.850Z,72.07
2023-03-17T07:22:42.563Z,72.02
2023-03-17T07:31:08.955Z,71.91
2023-03-17T07:39:31.953Z,72.31
2023-03-17T07:47:54.958Z,72.21
2023-03-17T07:56:17.940Z,72.30
2023-03-17T08:04:41.691Z,72.29
2023-03-17T08:13:04.773Z,72.16
2023-03-17T08:21:28.219Z,72.21
2023-03-17T08:29:53.827Z,72.15
2023-03-17T08:38:18.162Z,72.06
2023-03-17T08:46:41.494Z,71.94
2023-03-17T08:55:04.635Z,71.82
2023-03-17T09:03:29.752Z,71.85
2023-03-17T09:11:52.805Z,71.83
2023-03-17T09:20:16.143Z,72.05
2023-03-17T09:28:39.345Z,71.89
2023-03-17T09:37:02.480Z,72.22
2023-03-17T09:45:43.457Z,71.97
2023-03-17T09:54:21.225Z,72.06
2023-03-17T10:02:45.070Z,71.85
2023-03-17T10:11:27.208Z,72.04
2023-03-17T10:20:17.438Z,72.10
2023-03-17T10:28:42.617Z,71.81
2023-03-17T10:37:15.358Z,71.92
2023-03-17T10:45:47.988Z,71.86
2023-03-17T10:54:20.463Z,71.73
2023-03-17T11:02:46.978Z,71.62
2023-03-17T11:11:26.689Z,71.87
2023-03-17T11:20:22.303Z,71.67
2023-03-17T11:29:12.025Z,71.74
2023-03-17T11:37:44.046Z,71.69
2023-03-17T11:46:13.362Z,71.54
2023-03-17T11:54:46.007Z,71.72
2023-03-17T12:03:17.833Z,71.43
2023-03-17T12:11:43.461Z,71.65
2023-03-17T12:20:18.847Z,71.73
2023-03-17T12:28:57.450Z,71.31
2023-03-17T12:37:22.667Z,71.38
2023-03-17T12:46:04.549Z,71.46
2023-03-17T12:54:37.222Z,71.41
2023-03-17T13:03:23.674Z,71.38
2023-03-17T13:11:49.547Z,71.22
2023-03-17T13:20:19.678Z,71.24
2023-03-17T13:28:47.757Z,71.19
2023-03-17T13:37:28.997Z,71.22
2023-03-17T13:45:56.322Z,71.25
2023-03-17T13:54:28.870Z,71.20
2023-03-17T14:03:02.904Z,71.01
2023-03-17T14:11:38.617Z,71.00
2023-03-17T14:20:04.790Z,70.79
2023-03-17T14:28:35.607Z,70.99
2023-03-17T14:37:04.437Z,70.70
2023-03-17T14:45:33.026Z,70.60
2023-03-17T14:54:06.085Z,70.47
2023-03-17T15:02:51.377Z,70.69
2023-03-17T15:11:36.163Z,70.55
2023-03-17T15:20:06.755Z,70.53
2023-03-17T15:28:31.687Z,70.12
2023-03-17T15:36:55.560Z,70.18
2023-03-17T15:45:18.592Z,69.94
2023-03-17T15:53:41.595Z,70.17
2023-03-17T16:02:27.572Z,70.04
2023-03-17T16:10:52.122Z,69.83
2023-03-17T16:19:22.783Z,69.95
2023-03-17T16:27:46.921Z,69.72
2023-03-17T16:36:14.760Z,69.66
2023-03-17T16:44:37.776Z,69.67
2023-03-17T16:53:00.808Z,69.59
2023-03-17T17:01:26.146Z,69.45
2023-03-17T17:09:49.052Z,69.52
2023-03-17T17:18:17.908Z,69.39
2023-03-17T17:26:41.305Z,69.28
2023-03-17T17:35:04.699Z,69.23
2023-03-17T17:43:27.748Z,69.27
2023-03-17T17:51:50.708Z,69.40
2023-03-17T18:00:17.361Z,69.22
2023-03-17T18:08:41.178Z,69.07
2023-03-17T18:17:04.348Z,69.06
2023-03-17T18:25:27.478Z,68.78
2023-03-17T18:33:55.520Z,68.98
2023-03-17T18:42:18.542Z,68.95
2023-03-17T18:50:41.466Z,68.71
2023-03-17T18:59:04.435Z,68.73
2023-03-17T19:07:27.583Z,68.67
2023-03-17T19:15:51.081Z,68.77
2023-03-17T19:24:15.038Z,68.72
2023-03-17T19:32:37.981Z,68.63
2023-03-17T19:41:00.987Z,68.50
2023-03-17T19:49:23.991Z,68.43
2023-03-17T19:57:47.891Z,68.61
2023-03-17T20:06:13.254Z,68.50
2023-03-17T20:14:36.952Z,68.65
2023-03-17T20:22:59.914Z,68.41
2023-03-17T20:31:23.696Z,68.45
2023-03-17T20:39:47.145Z,68.39
2023-03-17T20:48:11.302Z,68.32
2023-03-17T20:56:34.422Z,68.30
2023-03-17T21:04:57.403Z,68.41
2023-03-17T21:13:20.439Z,68.24
2023-03-17T21:21:43.316Z,68.27
2023-03-17T21:30:09.840Z,68.05
2023-03-17T21:38:33.277Z,68.28
2023-03-17T21:46:56.798Z,68.29
2023-03-17T21:55:19.856Z,68.17
2023-03-17T22:03:45.698Z,68.22
2023-03-17T22:12:08.880Z,68.13
2023-03-17T22:20:32.021Z,68.11
2023-03-17T22:28:55.346Z,68.22
2023-03-17T22:37:18.365Z,68.02
2023-03-17T22:45:41.409Z,67.84
2023-03-17T22:54:04.515Z,67.84
2023-03-17T23:02:27.425Z,67.88
2023-03-17T23:10:51.345Z,67.62
2023-03-17T23:19:14.406Z,67.91
2023-03-17T23:27:37.302Z,67.65
2023-03-17T23:36:00.681Z,67.50
2023-03-17T23:44:23.642Z,67.87
2023-03-17T23:52:47.344Z,67.77
